• Join FlightAware (Why Join?)
  • Login
  • US Flag 
04:57PM EDT


 

Airport Tracker/Info


-or-


 

Live Flight TrackerFlight Track Log ✈ AFL150 ✈ 14-Oct-2013 ✈ UUEE / SVO - MUHA / HAV

Flight Track Log - Related Links

Times and Time Zones

All times are in EDT time to prevent confusion due to time zone crossing. See the AFL150 flight status page for this flight to view local times or setup timezone preferences in your user account.

Time Position Orientation Groundspeed Altitude Reporting Facility
EDT Latitude Longitude Course Direction KTS MPH feet Rate Location/Type
07:32AM 55.9650 37.3720 254° West 175 201 1,300  Level FlightAware
07:33AM 55.9610 37.3440 256° West 175 201 2,000 1,260 Climbing FlightAware
07:33AM 55.9570 37.3150 256° West 197 227 2,200 900 Climbing FlightAware
07:33AM 55.9520 37.2790 256° West 220 253 2,600 1,320 Climbing FlightAware
07:34AM 55.9450 37.2340 254° West 245 282 3,200 2,040 Climbing FlightAware
07:34AM 55.9460 37.1730 272° West 245 282 4,500 2,460 Climbing FlightAware
07:35AM 55.9530 37.1230 284° West 253 291 5,500 2,580 Climbing FlightAware
07:35AM 55.9570 37.0820 280° West 253 291 6,500 2,880 Climbing FlightAware
07:35AM 55.9620 37.0400 282° West 256 295 7,400 2,760 Climbing FlightAware
07:36AM 55.9650 37.0000 278° West 254 292 8,300 2,460 Climbing FlightAware
07:36AM 55.9690 36.9570 279° West 261 300 9,100 2,400 Climbing FlightAware
07:37AM 55.9760 36.8820 280° West 265 305 10,500 1,500 Climbing FlightAware
07:37AM 55.9830 36.7870 278° West 314 361 11,000 840 Climbing FlightAware
07:38AM 55.9780 36.7050 264° West 348 400 11,500 1,200 Climbing FlightAware
07:38AM 55.9700 36.6040 262° West 371 427 12,300 2,280 Climbing FlightAware
07:39AM 55.9620 36.4960 263° West 359 413 14,200 2,880 Climbing FlightAware
07:40AM 55.9540 36.3810 263° West 359 413 15,900 2,220 Climbing FlightAware
07:40AM 55.9460 36.2770 262° West 368 423 17,000 1,800 Climbing FlightAware
07:41AM 55.9390 36.1850 262° West 374 430 17,900 1,920 Climbing FlightAware
07:41AM 55.9310 36.0810 262° West 378 435 19,100 1,800 Climbing FlightAware
07:42AM 55.9220 35.9550 263° West 386 444 20,200 1,800 Climbing FlightAware
07:42AM 55.9140 35.8600 261° West 388 447 21,200 1,920 Climbing FlightAware
07:43AM 55.9060 35.7490 263° West 390 449 22,300 1,800 Climbing FlightAware
07:44AM 55.8970 35.6360 262° West 393 452 23,300 1,440 Climbing FlightAware
07:44AM 55.8870 35.5080 262° West 401 461 24,100 1,260 Climbing FlightAware
07:45AM 55.8790 35.4100 262° West 405 466 24,800 1,380 Climbing FlightAware
07:45AM 55.8690 35.2910 262° West 410 472 25,600 1,320 Climbing FlightAware
07:46AM 55.8600 35.1760 262° West 413 475 26,400 1,260 Climbing FlightAware
07:46AM 55.8510 35.0640 262° West 416 479 27,100 1,200 Climbing FlightAware
07:47AM 55.8400 34.9380 261° West 419 482 27,800 960 Climbing FlightAware
07:48AM 55.8350 34.8010 266° West 423 487 28,300 840 Climbing FlightAware
07:48AM 55.8370 34.6790 272° West 426 490 28,900 900 Climbing FlightAware
07:49AM 55.8430 34.5760 276° West 425 489 29,300 720 Climbing FlightAware
07:49AM 55.8640 34.4390 285° West 432 497 29,800 780 Climbing FlightAware
07:50AM 55.8800 34.3210 284° West 434 499 30,300 900 Climbing FlightAware
07:51AM 55.8950 34.2140 284° West 436 502 30,800 780 Climbing FlightAware
07:51AM 55.9120 34.0920 284° West 440 506 31,200 840 Climbing FlightAware
07:52AM 55.9320 33.9510 284° West 439 505 31,900 660 Climbing FlightAware
07:52AM 55.9460 33.8500 284° West 442 509 32,000 60 Climbing FlightAware
07:53AM 55.9630 33.7220 283° West 443 510 32,000  Level FlightAware
07:53AM 55.9800 33.6000 284° West 441 507 32,000  Level FlightAware
07:54AM 55.9960 33.4750 283° West 441 507 32,000  Level FlightAware
07:55AM 56.0150 33.3350 284° West 440 506 32,000  Level FlightAware
07:55AM 56.0290 33.2330 284° West 440 506 32,000  Level FlightAware
07:56AM 56.0460 33.1040 283° West 441 507 32,000  Level FlightAware
07:56AM 56.0640 32.9610 283° West 443 510 32,000  Level FlightAware
07:57AM 56.0800 32.8380 283° West 445 512 32,000  Level FlightAware
07:58AM 56.0940 32.7290 283° West 445 512 32,000  Level FlightAware
07:58AM 56.1100 32.6030 283° West 446 513 32,000  Level FlightAware
07:59AM 56.1280 32.4580 283° West 446 513 32,000  Level FlightAware
07:59AM 56.1410 32.3530 283° West 448 516 32,000  Level FlightAware
08:00AM 56.1560 32.2330 283° West 451 519 32,000  Level FlightAware
08:01AM 56.1740 32.0820 282° West 451 519 32,000  Level FlightAware
08:01AM 56.1880 31.9630 282° West 451 519 32,000  Level FlightAware
08:02AM 56.2010 31.8510 282° West 451 519 32,000  Level FlightAware
08:02AM 56.2140 31.7390 282° West 451 519 32,000  Level FlightAware
08:03AM 56.2280 31.6260 283° West 451 519 32,000  Level FlightAware
08:04AM 56.2410 31.5140 282° West 451 519 32,000  Level FlightAware
08:04AM 56.2540 31.4020 282° West 451 519 32,000  Level FlightAware
08:05AM 56.2680 31.2860 282° West 451 519 32,000  Level FlightAware
08:05AM 56.2820 31.1640 282° West 451 519 32,000  Level FlightAware
08:06AM 56.2960 31.0480 282° West 451 519 32,000  Level FlightAware
08:07AM 56.3090 30.9360 282° West 451 519 32,000  Level FlightAware
08:07AM 56.3220 30.8230 282° West 451 519 32,000  Level FlightAware
08:08AM 56.3360 30.7110 283° West 451 519 32,000  Level FlightAware
08:08AM 56.3490 30.5980 282° West 451 519 32,000  Level FlightAware
08:09AM 56.3620 30.4850 282° West 451 519 32,000  Level FlightAware
08:10AM 56.4610 30.0470 292° West 460 529 32,000  Level FlightAware
08:11AM 56.4530 30.1060 104° East 460 529 32,000  Level FlightAware
08:11AM 56.5030 29.7590 285° West 460 529 32,000  Level FlightAware
08:12AM 56.5190 29.6410 284° West 460 529 32,000  Level FlightAware
08:12AM 56.5430 29.4750 285° West 463 533 32,000  Level FlightAware
08:13AM 56.5660 29.3050 284° West 461 531 32,000  Level FlightAware
08:14AM 56.5880 29.1450 284° West 462 532 32,000  Level FlightAware
08:14AM 56.6060 29.0130 284° West 462 532 32,000  Level FlightAware
08:15AM 56.6320 28.8190 284° West 462 532 32,000  Level FlightAware
08:16AM 56.6510 28.6770 284° West 570 656 32,000  Level FlightAware
08:16AM 56.6690 28.5430 284° West 462 532 32,000  Level FlightAware
08:17AM 56.6860 28.4120 283° West 463 533 32,000  Level FlightAware
08:18AM 56.7030 28.2820 283° West 464 534 32,000  Level FlightAware
08:18AM 56.7260 28.1060 283° West 464 534 32,000  Level FlightAware
08:19AM 56.7420 27.9770 283° West 463 533 32,000  Level FlightAware
08:20AM 56.7520 27.8360 277° West 466 536 32,000  Level FlightAware
08:20AM 56.7530 27.7100 271° West 467 537 32,000 240 Level FlightAware
08:21AM 56.7550 27.5720 272° West 470 541 32,300 720 Climbing FlightAware
08:21AM 56.7560 27.4260 271° West 469 540 32,900 900 Climbing FlightAware
08:22AM 56.7570 27.3070 271° West 467 537 33,400 900 Climbing FlightAware
08:22AM 56.7580 27.1540 271° West 467 537 34,000 480 Climbing FlightAware
08:23AM 56.7580 27.0240 270° West 471 542 34,000  Level FlightAware
08:24AM 56.7590 26.8840 271° West 470 541 34,000  Level FlightAware
08:24AM 56.7590 26.7370 270° West 469 540 34,000  Level FlightAware
08:25AM 56.7600 26.6170 271° West 469 540 34,000  Level FlightAware
08:25AM 56.7600 26.4610 270° West 467 537 34,000  Level FlightAware
08:26AM 56.7600 26.3370 270° West 468 539 34,000  Level FlightAware
08:27AM 56.7590 26.1890 269° West 468 539 34,000  Level FlightAware
08:27AM 56.7590 26.0450 270° West 470 541 34,000  Level FlightAware
08:28AM 56.7590 25.9090 270° West 471 542 34,000  Level FlightAware
08:28AM 56.7580 25.7780 269° West 472 543 34,000  Level FlightAware
08:29AM 56.7570 25.6330 269° West 473 544 34,000  Level FlightAware
08:29AM 56.7560 25.4960 269° West 474 545 34,000  Level FlightAware
08:30AM 56.7550 25.3660 269° West 475 547 34,000  Level FlightAware
08:31AM 56.7540 25.2200 269° West 474 545 34,000  Level FlightAware
08:31AM 56.7530 25.0730 269° West 473 544 34,000  Level FlightAware
08:32AM 56.7510 24.9440 268° West 473 544 34,000  Level FlightAware
08:32AM 56.7500 24.8070 269° West 474 545 34,000  Level FlightAware
08:33AM 56.7480 24.6600 269° West 474 545 34,000  Level FlightAware
08:34AM 56.7460 24.5200 269° West 475 547 34,000  Level FlightAware
08:34AM 56.7430 24.3740 268° West 475 547 34,000  Level FlightAware
08:34AM 56.7420 24.2950 269° West 476 548 34,000  Level FlightAware ADS-B (EPSY / SZY)
08:35AM 56.7389 24.1202 268° West 477 549 34,000  Level FlightAware ADS-B (EPSY / SZY)
08:36AM 56.7366 23.9981 268° West 477 549 34,000  Level FlightAware ADS-B (EPSY / SZY)
08:36AM 56.7342 23.8750 268° West 478 550 34,000  Level FlightAware ADS-B (EPSY / SZY)
08:37AM 56.7311 23.7314 268° West 478 550 34,000  Level FlightAware ADS-B (EPSY / SZY)
08:37AM 56.7284 23.6075 268° West 478 550 34,000  Level FlightAware ADS-B (EPSY / SZY)
08:38AM 56.7249 23.4537 268° West 478 550 34,000  Level FlightAware ADS-B (EPSY / SZY)
08:38AM 56.7220 23.3341 268° West 479 551 34,000  Level FlightAware ADS-B (EPSY / SZY)
08:39AM 56.7179 23.1723 267° West 481 554 34,000  Level FlightAware ADS-B (EPSY / SZY)
08:40AM 56.7141 23.0279 267° West 482 555 34,000  Level FlightAware ADS-B (EPSY / SZY)
08:40AM 56.7108 22.9063 267° West 483 556 34,000  Level FlightAware ADS-B (EPSY / SZY)
08:41AM 56.7050 22.7020 267° West 484 557 34,000  Level FlightAware
08:42AM 56.7000 22.5530 267° West 484 557 34,000  Level FlightAware
08:42AM 56.6960 22.4220 267° West 484 557 34,000  Level FlightAware
08:42AM 56.6940 22.3540 267° West 485 558 34,000  Level FlightAware ADS-B (EPSY / SZY)
08:43AM 56.6890 22.1989 267° West 487 560 34,000  Level FlightAware ADS-B (EPSY / SZY)
08:44AM 56.6843 22.0626 266° West 487 560 34,000  Level FlightAware ADS-B (EPSY / SZY)
08:44AM 56.6787 21.9057 266° West 485 558 34,000  Level FlightAware ADS-B (EPSY / SZY)
08:45AM 56.6730 21.7514 266° West 485 558 34,000  Level FlightAware ADS-B (EPSY / SZY)
08:45AM 56.6682 21.6233 266° West 487 560 34,000  Level FlightAware ADS-B (EPSY / SZY)
08:46AM 56.6663 21.4525 269° West 490 564 34,000  Level FlightAware ADS-B (EPSY / SZY)
08:47AM 56.6691 21.3009 272° West 491 565 34,000  Level FlightAware ADS-B (EPSY / SZY)
08:47AM 56.6703 21.1787 271° West 492 566 34,000  Level FlightAware ADS-B (EPSY / SZY)
08:48AM 56.6712 21.0170 271° West 492 566 34,000  Level FlightAware ADS-B (EPSY / SZY)
08:49AM 56.6717 20.8633 270° West 491 565 34,000  Level FlightAware ADS-B (EPSY / SZY)
08:49AM 56.6720 20.7040 270° West 491 565 34,000  Level FlightAware
08:50AM 56.6722 20.6246 270° West 492 566 34,000  Level FlightAware ADS-B (EPSY / SZY)
08:50AM 56.6723 20.4441 270° West 493 567 34,000  Level FlightAware ADS-B (EPSY / SZY)
08:51AM 56.6721 20.2958 270° West 494 568 34,000  Level FlightAware ADS-B (EPSY / SZY)
08:52AM 56.6717 20.1369 270° West 495 570 34,000  Level FlightAware ADS-B (EPSY / SZY)
08:52AM 56.6710 19.9730 270° West 497 572 34,000  Level FlightAware
08:53AM 56.6700 19.8240 269° West 498 573 34,000  Level FlightAware
08:53AM 56.6700 19.6930 270° West 499 574 34,000  Level FlightAware
08:54AM 56.6690 19.5460 269° West 500 575 34,000  Level FlightAware
08:54AM 56.6670 19.3900 269° West 500 575 34,000  Level FlightAware
08:55AM 56.6660 19.2360 269° West 501 577 34,000  Level FlightAware
08:56AM 56.6640 19.0960 269° West 501 577 34,000  Level FlightAware
08:56AM 56.6620 18.9360 269° West 502 578 34,000  Level FlightAware
08:57AM 56.6610 18.8000 269° West 503 579 34,000  Level FlightAware
08:57AM 56.6580 18.6500 268° West 504 580 34,000  Level FlightAware
08:58AM 56.6560 18.5120 269° West 505 581 34,000  Level FlightAware
08:59AM 56.6540 18.3630 269° West 505 581 34,000  Level FlightAware
08:59AM 56.6510 18.2100 268° West 505 581 34,000  Level FlightAware
09:00AM 56.6490 18.0740 269° West 505 581 34,000  Level FlightAware
09:00AM 56.6510 17.9230 271° West 505 581 34,000  Level FlightAware
09:01AM 56.6530 17.7700 271° West 501 577 34,000  Level FlightAware
09:02AM 56.6540 17.6180 271° West 499 574 34,000  Level FlightAware
09:02AM 56.6540 17.4830 270° West 500 575 34,000  Level FlightAware
09:03AM 56.6550 17.3260 271° West 501 577 34,000  Level FlightAware
09:03AM 56.6550 17.1800 270° West 502 578 34,000  Level FlightAware
09:04AM 56.6550 16.9640 270° West 503 579 34,000  Level FlightAware
09:05AM 56.6550 16.8140 270° West 504 580 34,000  Level FlightAware
09:05AM 56.6550 16.6900 270° West 505 581 34,000  Level FlightAware
09:06AM 56.6550 16.5340 270° West 505 581 34,000  Level FlightAware
09:06AM 56.6540 16.3930 269° West 505 581 34,000  Level FlightAware
09:07AM 56.6530 16.2320 269° West 504 580 34,000  Level FlightAware
09:08AM 56.6520 16.0890 269° West 504 580 34,000  Level FlightAware
09:08AM 56.6510 15.9380 269° West 503 579 34,000  Level FlightAware
09:09AM 56.6500 15.7820 269° West 504 580 34,000  Level FlightAware
09:09AM 56.6480 15.6460 269° West 505 581 34,000  Level FlightAware
09:10AM 56.6470 15.4930 269° West 507 583 34,000  Level FlightAware
09:11AM 56.6450 15.3390 269° West 508 585 34,000  Level FlightAware
09:11AM 56.6440 15.3100 266° West 508 585 34,000  Level FlightAware
09:12AM 56.6410 15.0910 269° West 508 585 34,000  Level FlightAware
09:12AM 56.6390 14.9260 269° West 508 585 34,000  Level FlightAware
09:13AM 56.6360 14.7800 268° West 505 581 34,000  Level FlightAware
09:13AM 56.6330 14.6300 268° West 504 580 34,000  Level FlightAware
09:14AM 56.6310 14.4800 269° West 503 579 34,000  Level FlightAware
09:14AM 56.6280 14.3470 268° West 501 577 34,000  Level FlightAware
09:15AM 56.6240 14.1920 267° West 498 573 34,000  Level FlightAware
09:16AM 56.6210 14.0510 268° West 495 570 34,000  Level FlightAware
09:16AM 56.6180 13.9080 268° West 492 566 34,000  Level FlightAware
09:17AM 56.6140 13.7600 267° West 490 564 34,000  Level FlightAware
09:17AM 56.6100 13.6130 267° West 490 564 34,000  Level FlightAware
09:18AM 56.6060 13.4730 267° West 488 562 34,000  Level FlightAware
09:19AM 56.6020 13.3300 267° West 491 565 34,000  Level FlightAware
09:19AM 56.5980 13.1880 267° West 489 563 34,000  Level FlightAware
09:20AM 56.5940 13.0680 267° West 488 562 34,000  Level FlightAware
09:20AM 56.5890 12.8940 267° West 487 560 34,000  Level FlightAware
09:21AM 56.5840 12.7630 266° West 489 563 34,000  Level FlightAware
09:21AM 56.5790 12.6150 267° West 489 563 34,000  Level FlightAware
09:22AM 56.5740 12.4690 267° West 488 562 34,000  Level FlightAware
09:23AM 56.5690 12.3420 266° West 487 560 34,000  Level FlightAware
09:23AM 56.5640 12.1870 267° West 484 557 34,000  Level FlightAware
09:24AM 56.5580 12.0570 265° West 484 557 34,000  Level FlightAware
09:24AM 56.5520 11.9120 266° West 485 558 34,000  Level FlightAware
09:25AM 56.5460 11.7600 266° West 487 560 34,000  Level FlightAware
09:26AM 56.5400 11.6260 265° West 490 564 34,000  Level FlightAware
09:26AM 56.5350 11.4930 266° West 487 560 34,000  Level FlightAware
09:27AM 56.5270 11.3230 265° West 486 559 34,000  Level FlightAware
09:27AM 56.5200 11.1660 265° West 487 560 34,000  Level FlightAware
09:28AM 56.5130 11.0210 265° West 486 559 34,000  Level FlightAware
09:29AM 56.5070 10.9000 265° West 488 562 34,000  Level FlightAware
09:29AM 56.5000 10.7500 265° West 490 564 34,000  Level FlightAware
09:30AM 56.4920 10.6000 265° West 492 566 34,000  Level FlightAware
09:30AM 56.4840 10.4500 265° West 492 566 34,000  Level FlightAware
09:31AM 56.4780 10.3290 265° West 492 566 34,000  Level FlightAware
09:32AM 56.4690 10.1660 264° West 493 567 34,000  Level FlightAware
09:32AM 56.4620 10.0350 265° West 490 564 34,000  Level FlightAware
09:33AM 56.4540 9.8990 264° West 489 563 34,000  Level FlightAware
09:33AM 56.4450 9.7490 264° West 490 564 34,000  Level FlightAware
09:34AM 56.4370 9.6150 264° West 488 562 34,000  Level FlightAware
09:34AM 56.4280 9.4600 264° West 487 560 34,000  Level FlightAware
09:35AM 56.4200 9.3260 264° West 475 547 34,000  Level FlightAware
09:36AM 56.4110 9.1860 263° West 476 548 34,000  Level FlightAware
09:36AM 56.4020 9.0550 263° West 475 547 34,000  Level FlightAware
09:37AM 56.3920 8.8980 264° West 476 548 34,000  Level FlightAware
09:37AM 56.3840 8.7710 264° West 477 549 34,000  Level FlightAware
09:38AM 56.3750 8.6410 263° West 478 550 34,000  Level FlightAware
09:39AM 56.3650 8.4930 263° West 479 551 34,000  Level FlightAware
09:39AM 56.3560 8.3570 263° West 480 552 34,000  Level FlightAware
09:40AM 56.3460 8.2180 263° West 480 552 34,000  Level FlightAware
09:40AM 56.3350 8.0720 262° West 481 554 34,000  Level FlightAware
09:41AM 56.3250 7.9370 262° West 481 554 34,000  Level FlightAware
09:41AM 56.3150 7.8000 263° West 481 554 34,000  Level FlightAware
09:42AM 56.3050 7.6600 263° West 481 554 34,000  Level FlightAware
09:43AM 56.2940 7.5170 262° West 481 554 34,000  Level FlightAware
09:43AM 56.2840 7.3930 262° West 482 555 34,000  Level FlightAware
09:44AM 56.2700 7.2120 262° West 483 556 34,000  Level FlightAware
09:44AM 56.2590 7.0740 262° West 485 558 34,000  Level FlightAware
09:45AM 56.2480 6.9440 261° West 486 559 34,000  Level FlightAware
09:46AM 56.2370 6.8050 262° West 486 559 34,000  Level FlightAware
09:46AM 56.2240 6.6560 261° West 487 560 34,000  Level FlightAware
09:47AM 56.2120 6.5100 262° West 487 560 34,000  Level FlightAware
09:47AM 56.2020 6.3880 262° West 489 563 34,000  Level FlightAware
09:48AM 56.1890 6.2430 261° West 492 566 34,000  Level FlightAware
09:49AM 56.1770 6.1040 261° West 493 567 34,000  Level FlightAware
09:49AM 56.1630 5.9490 261° West 494 568 34,000  Level FlightAware
09:50AM 56.1510 5.8160 261° West 496 571 34,000  Level FlightAware
09:50AM 56.1370 5.6640 261° West 496 571 34,000  Level FlightAware
09:51AM 56.1240 5.5300 260° West 497 572 34,000  Level FlightAware
09:51AM 56.1110 5.3910 261° West 498 573 34,000  Level FlightAware
09:52AM 56.0980 5.2530 260° West 498 573 34,000  Level FlightAware
09:53AM 56.0840 5.1070 260° West 498 573 34,000  Level FlightAware
09:53AM 56.0710 4.9800 260° West 499 574 34,000  Level FlightAware
09:54AM 56.0500 4.7700 260° West 499 574 34,000  Level FlightAware
09:55AM 56.0370 4.6430 260° West 499 574 34,000  Level FlightAware
09:55AM 56.0190 4.4580 260° West 502 578 34,000  Level FlightAware
09:56AM 56.0020 4.3030 259° West 504 580 34,000  Level FlightAware
09:56AM 55.9890 4.1700 260° West 504 580 34,000  Level FlightAware
09:57AM 55.9720 4.0120 259° West 505 581 34,000  Level FlightAware
09:58AM 55.9570 3.8760 259° West 506 582 34,000  Level FlightAware
09:58AM 55.9420 3.7340 259° West 507 583 34,000  Level FlightAware
09:58AM 55.9378 3.7044 259° West 472 543 34,000  Level FlightAware UK
09:59AM 55.9360 3.6810 259° West 507 583 34,000  Level FlightAware
09:59AM 55.9153 3.4319 259° West 474 545 34,000  Level FlightAware UK
09:59AM 55.9160 3.4370 259° West 509 586 34,000  Level FlightAware
10:00AM 55.9200 3.2650 272° West 509 586 34,000  Level FlightAware
10:01AM 55.9224 3.1293 272° West 474 545 34,000  Level FlightAware UK
10:01AM 55.9230 3.1200 272° West 511 588 34,000  Level FlightAware
10:01AM 55.9250 2.9640 271° West 512 589 34,000  Level FlightAware
10:02AM 55.9279 2.8022 271° West 474 545 34,000  Level FlightAware UK
10:02AM 55.9280 2.7880 271° West 514 592 34,000  Level FlightAware
10:03AM 55.9300 2.6590 271° West 515 593 34,000  Level FlightAware
10:03AM 55.9307 2.6501 271° West 476 548 34,000  Level FlightAware UK
10:03AM 55.9320 2.5160 271° West 514 592 34,000  Level FlightAware
10:03AM 55.9328 2.4978 271° West 476 548 34,000  Level FlightAware UK
10:04AM 55.9340 2.3560 271° West 513 590 34,000  Level FlightAware
10:04AM 55.9345 2.3464 271° West 474 545 34,000  Level FlightAware UK
10:04AM 55.9359 2.2384 272° West 513 590 34,000  Level FlightAware ADS-B
10:05AM 55.9374 2.1050 271° West 513 590 34,000  Level FlightAware ADS-B
10:05AM 55.9390 1.9420 271° West 472 543 34,000  Level FlightAware UK
10:06AM 55.9390 1.8930 271° West 516 594 34,000  Level FlightAware
10:06AM 55.9407 1.7466 271° West 518 596 34,000  Level FlightAware ADS-B
10:07AM 55.9417 1.6141 271° West 519 597 34,000  Level FlightAware ADS-B
10:07AM 55.9408 1.7260 91° East 518 596 34,000  Level FlightAware ADS-B
10:08AM 55.9432 1.3358 271° West 520 598 34,000  Level FlightAware ADS-B
10:08AM 55.9437 1.2011 271° West 520 598 34,000  Level FlightAware ADS-B
10:08AM 55.9439 1.1500 271° West 472 543 34,000  Level FlightAware UK
10:09AM 55.9433 1.3297 90° East 523 602 34,000  Level FlightAware ADS-B
10:10AM 55.9443 0.8697 270° West 524 603 34,000  Level FlightAware ADS-B
10:10AM 55.9444 0.7282 270° West 524 603 34,000  Level FlightAware ADS-B
10:11AM 55.9442 0.5943 270° West 522 601 34,000  Level FlightAware ADS-B
10:11AM 55.9430 0.4930 269° West 522 601 34,000  Level FlightAware
10:11AM 55.9437 0.4275 271° West 522 601 34,000  Level FlightAware ADS-B
10:12AM 55.9433 0.2996 270° West 521 600 34,000  Level FlightAware ADS-B
10:12AM 55.9428 0.1668 270° West 523 602 34,000  Level FlightAware ADS-B
10:13AM 55.9418 0.0128 269° West 524 603 34,000  Level FlightAware ADS-B
10:13AM 55.9409 -0.1328 269° West 526 605 34,000  Level FlightAware ADS-B
10:14AM 55.9398 -0.2696 269° West 527 606 34,000  Level FlightAware ADS-B
10:14AM 55.9386 -0.4036 269° West 527 606 34,000  Level FlightAware ADS-B
10:15AM 55.9376 -0.4980 269° West 528 608 34,000  Level FlightAware ADS-B
10:15AM 55.9362 -0.6291 269° West 529 609 34,000  Level FlightAware ADS-B
10:16AM 55.9347 -0.7514 269° West 531 611 34,000  Level FlightAware ADS-B
10:16AM 55.9326 -0.9071 269° West 532 612 34,000  Level FlightAware ADS-B
10:17AM 55.9306 -1.0451 269° West 532 612 34,000  Level FlightAware ADS-B
10:17AM 55.9301 -1.0723 268° West 529 609 34,000  Level FlightAware ADS-B
10:18AM 55.9277 -1.2293 268° West 534 615 34,000  Level FlightAware ADS-B
10:18AM 55.9255 -1.3559 268° West 536 617 34,000  Level FlightAware ADS-B
10:19AM 55.9228 -1.5063 268° West 537 618 34,000  Level FlightAware ADS-B
10:19AM 55.9201 -1.6476 268° West 538 619 34,000  Level FlightAware ADS-B
10:20AM 55.9175 -1.7748 268° West 537 618 34,000  Level FlightAware ADS-B
10:20AM 55.9145 -1.9160 268° West 537 618 34,000  Level FlightAware ADS-B
10:21AM 55.9107 -2.0845 268° West 537 618 34,000  Level FlightAware ADS-B
10:21AM 55.9075 -2.2196 268° West 535 616 34,000  Level FlightAware ADS-B
10:22AM 55.9061 -2.2925 268° West 533 613 34,000  Level FlightAware ADS-B
10:22AM 55.9062 -2.2858 89° East 533 613 34,000  Level FlightAware ADS-B
10:22AM 55.9060 -2.2981 269° West 533 613 34,000  Level FlightAware ADS-B
10:22AM 55.9043 -2.4893 269° West 532 612 34,000  Level FlightAware ADS-B
10:23AM 55.9041 -2.5097 269° West 532 612 34,000  Level FlightAware ADS-B
10:23AM 55.9033 -2.5871 269° West 532 612 34,000  Level FlightAware ADS-B
10:23AM 55.9018 -2.7293 269° West 530 610 34,000  Level FlightAware ADS-B
10:24AM 55.8998 -2.9321 269° West 528 608 34,000  Level FlightAware ADS-B
10:25AM 55.8992 -2.9976 269° West 528 608 34,000  Level FlightAware ADS-B
10:25AM 55.8971 -3.2209 269° West 526 605 34,000  Level FlightAware ADS-B
10:26AM 55.8957 -3.3594 269° West 526 605 34,000  Level FlightAware ADS-B
10:26AM 55.8945 -3.4955 269° West 526 605 34,000  Level FlightAware ADS-B
10:27AM 55.8933 -3.6352 269° West 468 539 34,000  Level FlightAware UK
10:27AM 55.8932 -3.6617 269° West 527 606 34,000  Level FlightAware ADS-B
10:28AM 55.8918 -3.8371 269° West 527 606 34,000  Level FlightAware ADS-B
10:28AM 55.8908 -3.9321 269° West 526 605 34,000  Level FlightAware ADS-B
10:29AM 55.8889 -4.1274 269° West 466 536 34,000  Level FlightAware UK
10:29AM 55.8880 -4.1870 269° West 525 604 34,000  Level FlightAware
10:29AM 55.8880 -4.2101 270° West 525 604 34,000  Level FlightAware ADS-B (EGGP / LPL)
10:30AM 55.8939 -4.3853 270° West 468 539 34,000  Level FlightAware UK
10:30AM 55.8914 -4.3410 270° West 521 600 34,000  Level FlightAware ADS-B
10:30AM 55.8988 -4.5105 274° West 521 600 34,000  Level FlightAware ADS-B
10:31AM 55.9070 -4.7135 274° West 519 597 34,000  Level FlightAware ADS-B
10:32AM 55.9151 -4.9211 274° West 468 539 34,000  Level FlightAware UK
10:32AM 55.9150 -4.9180 274° West 518 596 34,000  Level FlightAware
10:32AM 55.9146 -4.9126 97° East 518 596 34,000  Level FlightAware ADS-B
10:33AM 55.9213 -5.0967 274° West 515 593 34,000  Level FlightAware ADS-B
10:33AM 55.9271 -5.2245 275° West 514 592 34,000  Level FlightAware ADS-B
10:34AM 55.9334 -5.3491 275° West 513 590 34,000  Level FlightAware ADS-B
10:34AM 55.9453 -5.6033 275° West 466 536 34,000  Level FlightAware UK
10:35AM 55.9480 -5.6630 275° West 515 593 34,000  Level FlightAware
10:35AM 55.9481 -5.6686 271° West 514 592 34,000  Level FlightAware ADS-B
10:36AM 55.9571 -5.8821 271° West 466 536 34,000  Level FlightAware UK
10:36AM 55.9547 -5.8255 271° West 514 592 34,000  Level FlightAware ADS-B
10:36AM 55.9604 -5.9615 274° West 514 592 34,000  Level FlightAware ADS-B
10:37AM 55.9660 -6.1006 274° West 512 589 34,000 120 Level FlightAware ADS-B
10:37AM 55.9742 -6.3093 274° West 470 541 34,200 360 Climbing FlightAware UK
10:37AM 55.9741 -6.3083 274° West 505 581 34,300 600 Climbing FlightAware ADS-B
10:38AM 55.9808 -6.4885 274° West 508 585 34,800 1,020 Climbing FlightAware ADS-B
10:39AM 55.9880 -6.6832 274° West 466 536 35,600 1,320 Climbing FlightAware UK
10:39AM 55.9880 -6.6850 274° West 504 580 35,600 -600 Level FlightAware
10:39AM 55.9867 -6.6488 94° East 507 583 35,500 420 Descending FlightAware ADS-B
10:39AM 55.9942 -6.8572 94° East 466 536 35,900 480 Climbing FlightAware UK
10:40AM 55.9955 -6.9002 94° East 508 585 36,000 60 Climbing FlightAware ADS-B
10:40AM 56.0021 -7.1073 94° East 470 541 36,000  Level FlightAware UK
10:41AM 56.0030 -7.1240 94° East 503 579 36,000  Level FlightAware
10:41AM 56.0064 -7.2445 273° West 504 580 36,000  Level FlightAware ADS-B
10:42AM 56.0120 -7.4360 273° West 503 579 36,000  Level FlightAware
10:42AM 56.0170 -7.5990 273° West 502 578 36,000  Level FlightAware
10:43AM 56.0200 -7.7200 273° West 502 578 36,000  Level FlightAware
10:43AM 56.0211 -7.7528 273° West 466 536 36,000  Level FlightAware UK
10:44AM 56.0244 -7.8767 273° West 464 534 36,000  Level FlightAware UK
10:44AM 56.0250 -7.8880 273° West 501 577 36,000  Level FlightAware
10:44AM 56.0280 -8.0130 273° West 502 578 36,000  Level FlightAware
10:45AM 56.0310 -8.1460 272° West 502 578 36,000  Level FlightAware
10:45AM 56.0340 -8.3000 272° West 501 577 36,000  Level FlightAware
10:46AM 56.0380 -8.4560 273° West 500 575 36,000  Level FlightAware
10:47AM 56.0400 -8.5930 273° West 500 575 36,000  Level FlightAware
10:47AM 56.0413 -8.6198 273° West 466 536 36,000  Level FlightAware UK
10:47AM 56.0435 -8.7432 273° West 466 536 36,000  Level FlightAware UK
10:47AM 56.0430 -8.7450 273° West 500 575 36,000  Level FlightAware
10:48AM 56.0460 -8.8905 273° West 468 539 36,000  Level FlightAware UK
10:48AM 56.0460 -8.8770 273° West 467 537 36,000  Level FlightAware
10:48AM 56.0480 -9.0270 271° West 497 572 36,000  Level FlightAware
10:49AM 56.0500 -9.1590 272° West 496 571 36,000  Level FlightAware
10:49AM 56.0530 -9.3190 272° West 495 570 36,000 120 Level FlightAware
10:50AM 56.0540 -9.4630 271° West 492 566 36,200 420 Climbing FlightAware
10:51AM 56.0560 -9.6030 272° West 491 565 36,500 600 Climbing FlightAware
10:51AM 56.0580 -9.7470 271° West 485 558 36,900 420 Climbing FlightAware
10:52AM 56.0590 -9.8840 271° West 489 563 37,000 60 Climbing FlightAware
10:52AM 56.0600 -10.0260 271° West 483 556 37,000  Level FlightAware
10:53AM 56.0610 -10.1640 271° West 481 554 37,000  Level FlightAware
10:54AM 56.0620 -10.2980 271° West 478 550 37,000  Level FlightAware
10:54AM 56.0630 -10.4440 271° West 477 549 37,000  Level FlightAware
10:55AM 56.0640 -10.5770 271° West 476 548 37,000  Level FlightAware
10:55AM 56.0640 -10.7180 270° West 475 547 37,000  Level FlightAware
10:56AM 56.0640 -10.8520 270° West 475 547 37,000  Level FlightAware
10:57AM 56.0640 -11.0270 270° West 474 545 37,000  Level FlightAware
10:57AM 56.0640 -11.2030 270° West 474 545 37,000  Level FlightAware
10:58AM 56.0640 -11.3410 270° West 474 545 37,000  Level FlightAware
10:59AM 56.0640 -11.4780 270° West 474 545 37,000  Level FlightAware
10:59AM 56.0630 -11.6340 269° West 475 547 37,000  Level FlightAware
11:00AM 56.0620 -11.7500 269° West 474 545 37,000  Level FlightAware
11:00AM 56.0610 -11.8880 269° West 474 545 37,000  Level FlightAware
11:01AM 56.0600 -12.0430 269° West 474 545 37,000  Level FlightAware
11:02AM 56.0600 -12.1700 270° West 474 545 37,000  Level FlightAware
11:02AM 56.0600 -12.2970 270° West 474 545 37,000  Level FlightAware
11:03AM 56.0600 -12.4100 270° West 474 545 37,000  Level FlightAware
11:03AM 56.0600 -12.5300 270° West 474 545 37,000  Level FlightAware
11:04AM 56.0600 -12.6570 270° West 474 545 37,000  Level FlightAware
11:05AM 56.0600 -12.7780 270° West 474 545 37,000  Level FlightAware
11:05AM 56.0600 -12.8980 270° West 474 545 37,000  Level FlightAware
11:06AM 56.0600 -13.0180 270° West 474 545 37,000  Level FlightAware
11:06AM 56.0600 -13.1310 270° West 474 545 37,000  Level FlightAware
11:07AM 56.0600 -13.2550 270° West 474 545 37,000  Level FlightAware
11:08AM 56.0600 -13.3750 270° West 474 545 37,000  Level FlightAware
11:08AM 56.0600 -13.5020 270° West 474 545 37,000  Level FlightAware
11:09AM 56.0600 -13.6220 270° West 474 545 37,000  Level FlightAware
11:09AM 56.0600 -13.7360 270° West 474 545 37,000  Level FlightAware
11:10AM 56.0600 -13.8630 270° West 474 545 37,000  Level FlightAware
11:11AM 56.0600 -13.9760 270° West 474 545 37,000  Level FlightAware
11:13AM 56.0408 -14.4253 266° West  Level Estimated
11:14AM 56.0302 -14.6575 265° West  Level Estimated
11:15AM 56.0192 -14.8896 265° West  Level Estimated
11:16AM 56.0078 -15.1215 265° West  Level Estimated
11:17AM 55.9959 -15.3533 265° West  Level Estimated
11:18AM 55.9836 -15.5850 265° West  Level Estimated
11:19AM 55.9709 -15.8165 264° West  Level Estimated
11:20AM 55.9577 -16.0479 264° West  Level Estimated
11:21AM 55.9441 -16.2791 264° West  Level Estimated
11:22AM 55.9300 -16.5101 264° West  Level Estimated
11:23AM 55.9156 -16.7410 264° West  Level Estimated
11:24AM 55.9007 -16.9716 264° West  Level Estimated
11:25AM 55.8853 -17.2022 263° West  Level Estimated
11:26AM 55.8696 -17.4325 263° West  Level Estimated
11:27AM 55.8534 -17.6626 263° West  Level Estimated
11:28AM 55.8368 -17.8925 263° West  Level Estimated
11:29AM 55.8197 -18.1223 263° West  Level Estimated
11:30AM 55.8022 -18.3518 262° West  Level Estimated
11:31AM 55.7843 -18.5812 262° West  Level Estimated
11:32AM 55.7660 -18.8103 262° West  Level Estimated
11:33AM 55.7472 -19.0392 262° West  Level Estimated
11:34AM 55.7281 -19.2679 262° West  Level Estimated
11:35AM 55.7085 -19.4963 261° West  Level Estimated
11:36AM 55.6884 -19.7245 261° West  Level Estimated
11:37AM 55.6680 -19.9525 261° West  Level Estimated
11:38AM 55.6471 -20.1803 261° West  Level Estimated
11:39AM 55.6258 -20.4077 261° West  Level Estimated
11:40AM 55.6041 -20.6350 260° West  Level Estimated
11:41AM 55.5819 -20.8620 260° West  Level Estimated
11:42AM 55.5594 -21.0887 260° West  Level Estimated
11:43AM 55.5364 -21.3152 260° West  Level Estimated
11:43AM 57.0000 -20.0000 285° West 457 526 37,000  Level ETMS Enhanced Traffic Management System
11:44AM 55.5130 -21.5414 260° West  Level Estimated
11:45AM 55.4892 -21.7673 260° West  Level Estimated
11:46AM 55.4650 -21.9930 259° West  Level Estimated
11:47AM 55.4403 -22.2183 259° West  Level Estimated
11:48AM 55.4153 -22.4434 259° West  Level Estimated
11:49AM 57.3305 -22.5030 283° West 457 526 37,000  Level FlightAware Transoceanic
11:50AM 57.3581 -22.7327 282° West 457 526 37,000  Level FlightAware Transoceanic
11:51AM 57.3852 -22.9627 282° West 457 526 37,000  Level FlightAware Transoceanic
11:52AM 57.4119 -23.1931 282° West 457 526 37,000  Level FlightAware Transoceanic
11:53AM 57.4383 -23.4238 282° West 457 526 37,000  Level FlightAware Transoceanic
11:54AM 57.4641 -23.6549 282° West 457 526 37,000  Level FlightAware Transoceanic
11:55AM 57.4896 -23.8862 281° West 457 526 37,000  Level FlightAware Transoceanic
11:56AM 57.5146 -24.1179 281° West 457 526 37,000  Level FlightAware Transoceanic
11:57AM 57.5392 -24.3500 281° West 457 526 37,000  Level FlightAware Transoceanic
11:58AM 57.5634 -24.5823 281° West 457 526 37,000  Level FlightAware Transoceanic
11:59AM 57.5872 -24.8149 281° West 457 526 37,000  Level FlightAware Transoceanic
12:00PM 57.6105 -25.0478 280° West 457 526 37,000  Level FlightAware Transoceanic
12:01PM 57.6334 -25.2811 280° West 457 526 37,000  Level FlightAware Transoceanic
12:02PM 57.6559 -25.5146 280° West 457 526 37,000  Level FlightAware Transoceanic
12:03PM 57.6779 -25.7484 280° West 457 526 37,000  Level FlightAware Transoceanic
12:04PM 57.6995 -25.9825 280° West 457 526 37,000  Level FlightAware Transoceanic
12:05PM 57.7207 -26.2168 280° West 457 526 37,000  Level FlightAware Transoceanic
12:06PM 57.7414 -26.4515 279° West 457 526 37,000  Level FlightAware Transoceanic
12:07PM 57.7617 -26.6864 279° West 457 526 37,000  Level FlightAware Transoceanic
12:08PM 57.7816 -26.9215 279° West 457 526 37,000  Level FlightAware Transoceanic
12:09PM 57.8010 -27.1569 279° West 457 526 37,000  Level FlightAware Transoceanic
12:10PM 57.8200 -27.3926 279° West 457 526 37,000  Level FlightAware Transoceanic
12:11PM 57.8386 -27.6285 278° West 457 526 37,000  Level FlightAware Transoceanic
12:12PM 57.8567 -27.8647 278° West 457 526 37,000  Level FlightAware Transoceanic
12:13PM 57.8744 -28.1011 278° West 457 526 37,000  Level FlightAware Transoceanic
12:14PM 57.8917 -28.3377 278° West 457 526 37,000  Level FlightAware Transoceanic
12:15PM 57.9085 -28.5745 278° West 457 526 37,000  Level FlightAware Transoceanic
12:16PM 57.9248 -28.8116 277° West 457 526 37,000  Level FlightAware Transoceanic
12:17PM 57.9407 -29.0489 277° West 457 526 37,000  Level FlightAware Transoceanic
12:18PM 57.9562 -29.2864 277° West 457 526 37,000  Level FlightAware Transoceanic
12:19PM 57.9713 -29.5240 277° West 457 526 37,000  Level FlightAware Transoceanic
12:20PM 57.9859 -29.7619 276° West 457 526 37,000  Level FlightAware Transoceanic
12:21PM 57.9416 -29.9900 250° West  Level Estimated
12:22PM 57.8969 -30.2175 250° West  Level Estimated
12:23PM 57.8517 -30.4444 250° West  Level Estimated
12:24PM 57.8062 -30.6708 249° West  Level Estimated
12:25PM 57.7603 -30.8966 249° West  Level Estimated
12:26PM 57.7140 -31.1218 249° West  Level Estimated
12:27PM 57.6673 -31.3464 249° West  Level Estimated
12:28PM 57.6202 -31.5705 249° West  Level Estimated
12:29PM 57.5727 -31.7939 248° West  Level Estimated
12:30PM 57.5247 -32.0168 248° West  Level Estimated
12:31PM 57.4765 -32.2391 248° West  Level Estimated
12:32PM 57.4278 -32.4608 248° West  Level Estimated
12:33PM 57.3787 -32.6819 248° West  Level Estimated
12:34PM 57.3293 -32.9025 248° West  Level Estimated
12:35PM 57.2794 -33.1224 247° West  Level Estimated
12:36PM 57.2292 -33.3417 247° West  Level Estimated
12:37PM 57.1786 -33.5605 247° West  Level Estimated
12:38PM 57.1276 -33.7786 247° West  Level Estimated
12:39PM 57.0762 -33.9961 247° West  Level Estimated
12:40PM 57.0245 -34.2131 246° West  Level Estimated
12:41PM 56.9724 -34.4294 246° West  Level Estimated
12:42PM 56.9199 -34.6451 246° West  Level Estimated
12:43PM 56.8671 -34.8602 246° West  Level Estimated
12:44PM 56.8138 -35.0747 246° West  Level Estimated
12:45PM 56.7602 -35.2886 246° West  Level Estimated
12:46PM 56.7063 -35.5019 245° Southwest  Level Estimated
12:47PM 56.6520 -35.7145 245° Southwest  Level Estimated
12:48PM 56.5973 -35.9266 245° Southwest  Level Estimated
12:49PM 56.5422 -36.1380 245° Southwest  Level Estimated
12:50PM 56.4868 -36.3489 245° Southwest  Level Estimated
12:51PM 56.4311 -36.5591 244° Southwest  Level Estimated
12:52PM 56.3750 -36.7686 244° Southwest  Level Estimated
12:53PM 56.3185 -36.9776 244° Southwest  Level Estimated
12:54PM 56.2617 -37.1860 244° Southwest  Level Estimated
12:55PM 56.2046 -37.3937 244° Southwest  Level Estimated
12:56PM 56.1470 -37.6008 244° Southwest  Level Estimated
12:57PM 56.0892 -37.8073 243° Southwest  Level Estimated
12:58PM 56.0310 -38.0132 243° Southwest  Level Estimated
12:59PM 55.9725 -38.2184 243° Southwest  Level Estimated
01:00PM 55.9136 -38.4230 243° Southwest  Level Estimated
01:01PM 55.8544 -38.6270 243° Southwest  Level Estimated
01:02PM 55.7948 -38.8304 243° Southwest  Level Estimated
01:03PM 55.7349 -39.0332 242° Southwest  Level Estimated
01:04PM 55.6747 -39.2353 242° Southwest  Level Estimated
01:05PM 55.6141 -39.4368 242° Southwest  Level Estimated
01:06PM 55.5533 -39.6377 242° Southwest  Level Estimated
01:07PM 55.4921 -39.8380 242° Southwest  Level Estimated
01:08PM 55.4305 -40.0376 242° Southwest  Level Estimated
01:09PM 55.3687 -40.2366 241° Southwest  Level Estimated
01:10PM 55.3065 -40.4350 241° Southwest  Level Estimated
01:11PM 55.2440 -40.6328 241° Southwest  Level Estimated
01:12PM 55.1812 -40.8299 241° Southwest  Level Estimated
01:13PM 55.1180 -41.0265 241° Southwest  Level Estimated
01:14PM 55.0546 -41.2224 241° Southwest  Level Estimated
01:15PM 54.9908 -41.4176 240° Southwest  Level Estimated
01:16PM 54.9267 -41.6123 240° Southwest  Level Estimated
01:17PM 54.8623 -41.8064 240° Southwest  Level Estimated
01:18PM 54.7976 -41.9998 240° Southwest  Level Estimated
01:19PM 54.7327 -42.1926 240° Southwest  Level Estimated
01:20PM 54.6673 -42.3848 240° Southwest  Level Estimated
01:21PM 54.6017 -42.5763 239° Southwest  Level Estimated
01:22PM 54.5358 -42.7673 239° Southwest  Level Estimated
01:23PM 54.4696 -42.9576 239° Southwest  Level Estimated
01:24PM 54.4031 -43.1473 239° Southwest  Level Estimated
01:25PM 54.3363 -43.3364 239° Southwest  Level Estimated
01:26PM 54.2692 -43.5249 239° Southwest  Level Estimated
01:27PM 54.2018 -43.7127 239° Southwest  Level Estimated
01:28PM 54.1341 -43.9000 238° Southwest  Level Estimated
01:29PM 54.0662 -44.0867 238° Southwest  Level Estimated
01:30PM 53.9979 -44.2727 238° Southwest  Level Estimated
01:31PM 53.9294 -44.4581 238° Southwest  Level Estimated
01:32PM 53.8605 -44.6429 238° Southwest  Level Estimated
01:33PM 53.7914 -44.8271 238° Southwest  Level Estimated
01:34PM 53.7220 -45.0107 237° Southwest  Level Estimated
01:35PM 53.6523 -45.1937 237° Southwest  Level Estimated
01:36PM 53.5824 -45.3761 237° Southwest  Level Estimated
01:37PM 53.5121 -45.5579 237° Southwest  Level Estimated
01:38PM 53.4416 -45.7391 237° Southwest  Level Estimated
01:39PM 53.3709 -45.9196 237° Southwest  Level Estimated
01:40PM 53.2998 -46.0996 237° Southwest  Level Estimated
01:41PM 53.2285 -46.2790 236° Southwest  Level Estimated
01:42PM 53.1569 -46.4578 236° Southwest  Level Estimated
01:43PM 53.0850 -46.6359 236° Southwest  Level Estimated
01:44PM 53.0129 -46.8135 236° Southwest  Level Estimated
01:45PM 52.9405 -46.9905 236° Southwest  Level Estimated
01:46PM 52.8679 -47.1669 236° Southwest  Level Estimated
01:47PM 52.7950 -47.3428 236° Southwest  Level Estimated
01:48PM 52.7218 -47.5180 235° Southwest  Level Estimated
01:49PM 52.6484 -47.6926 235° Southwest  Level Estimated
01:50PM 52.5747 -47.8667 235° Southwest  Level Estimated
01:51PM 52.5008 -48.0401 235° Southwest  Level Estimated
01:52PM 52.4266 -48.2130 235° Southwest  Level Estimated
01:53PM 52.3521 -48.3853 235° Southwest  Level Estimated
01:54PM 52.2775 -48.5570 235° Southwest  Level Estimated
01:55PM 52.2025 -48.7282 235° Southwest  Level Estimated
01:56PM 52.1273 -48.8987 234° Southwest  Level Estimated
01:57PM 52.0519 -49.0687 234° Southwest  Level Estimated
01:58PM 51.9762 -49.2381 234° Southwest  Level Estimated
01:59PM 51.9003 -49.4070 234° Southwest  Level Estimated
02:00PM 51.8242 -49.5752 234° Southwest  Level Estimated
02:01PM 51.7478 -49.7429 234° Southwest  Level Estimated
02:02PM 51.6712 -49.9101 234° Southwest  Level Estimated
02:03PM 51.5943 -50.0766 233° Southwest  Level Estimated
02:03PM 53.3000 -53.1333 233° Southwest 450 518 37,000  Level Gander Center
02:04PM 51.5172 -50.2426 233° Southwest  Level Estimated
02:04PM 53.2667 -53.3000 252° West 450 518 37,000  Level Gander Center
02:05PM 51.4398 -50.4081 233° Southwest  Level Estimated
02:05PM 53.2167 -53.5167 249° West 450 518 37,000  Level Gander Center
02:06PM 51.3623 -50.5730 233° Southwest  Level Estimated
02:06PM 53.1833 -53.7167 255° West 450 518 37,000  Level Gander Center
02:07PM 51.2845 -50.7373 233° Southwest  Level Estimated
02:07PM 53.1167 -53.8833 236° Southwest 450 518 37,000  Level Gander Center
02:08PM 51.2065 -50.9011 233° Southwest  Level Estimated
02:08PM 53.0667 -54.0667 246° West 450 518 37,000  Level Gander Center
02:09PM 52.9667 -54.2500 228° Southwest 450 518 37,000  Level Gander Center
02:10PM 52.9000 -54.4000 234° Southwest 460 529 37,000 -300 Level Gander Center
02:12PM 52.7167 -54.7333 228° Southwest 460 529 36,100 -360 Descending Gander Center
02:13PM 52.6333 -54.8833 228° Southwest 460 529 36,000 -60 Descending Gander Center
02:14PM 52.5500 -55.0667 233° Southwest 460 529 36,000  Level Gander Center
02:15PM 52.4667 -55.2167 228° Southwest 460 529 36,000  Level Gander Center
02:16PM 52.3833 -55.3833 231° Southwest 460 529 36,000  Level Gander Center
02:17PM 52.3000 -55.5333 228° Southwest 450 518 36,000  Level Gander Center
02:18PM 52.2333 -55.6833 234° Southwest 450 518 36,000  Level Gander Center
02:19PM 52.1333 -55.8333 223° Southwest 450 518 36,000  Level Gander Center
02:20PM 52.0500 -55.9833 228° Southwest 440 506 36,000  Level Gander Center
02:21PM 51.9667 -56.1167 225° Southwest 440 506 36,000  Level Gander Center
02:22PM 51.8833 -56.2667 228° Southwest 450 518 36,000  Level Gander Center
02:23PM 51.8167 -56.4333 237° Southwest 450 518 36,000  Level Gander Center
02:24PM 51.7167 -56.5833 223° Southwest 450 518 36,000  Level Gander Center
02:25PM 51.6333 -56.7333 228° Southwest 450 518 36,000  Level Gander Center
02:26PM 51.5500 -56.8667 225° Southwest 460 529 36,000  Level Gander Center
02:27PM 51.4667 -57.0167 228° Southwest 430 495 36,000  Level Gander Center
02:28PM 51.3833 -57.1500 225° Southwest 440 506 36,000  Level Gander Center
02:29PM 51.2833 -57.3000 223° Southwest 440 506 36,000  Level Gander Center
02:30PM 51.2167 -57.4667 237° Southwest 440 506 36,000  Level Gander Center
02:31PM 51.1333 -57.6000 225° Southwest 430 495 36,000  Level Gander Center
02:32PM 51.0500 -57.7167 221° Southwest 440 506 36,000  Level Gander Center
02:33PM 50.9667 -57.8833 232° Southwest 430 495 36,000  Level Gander Center
02:39PM 50.5170 -58.6610 232° Southwest 430 495 36,000  Level FlightAware
02:39PM 50.4710 -58.7360 226° Southwest 430 495 36,000  Level FlightAware
02:40PM 50.4290 -58.8050 226° Southwest 430 495 36,000  Level FlightAware
02:41PM 50.3530 -58.9260 225° Southwest 428 493 36,000  Level FlightAware
02:41PM 50.3120 -58.9920 226° Southwest 428 493 36,000  Level FlightAware
02:42PM 50.2570 -59.0790 225° Southwest 428 493 36,000  Level FlightAware
02:43PM 50.2130 -59.1480 225° Southwest 428 493 36,000  Level FlightAware
02:43PM 50.1660 -59.2200 224° Southwest 428 493 36,000  Level FlightAware
02:44PM 50.1260 -59.2830 225° Southwest 428 493 36,000  Level FlightAware
02:44PM 50.0820 -59.3520 225° Southwest 428 493 36,000  Level FlightAware
02:45PM 50.0380 -59.4210 225° Southwest 428 493 36,000  Level FlightAware
02:46PM 49.9950 -59.4870 225° Southwest 428 493 36,000  Level FlightAware
02:46PM 49.9520 -59.5540 225° Southwest 428 493 36,000  Level FlightAware
02:47PM 49.9090 -59.6200 225° Southwest 428 493 36,000  Level FlightAware
02:47PM 49.8660 -59.6870 225° Southwest 428 493 36,000  Level FlightAware
02:48PM 49.8230 -59.7530 225° Southwest 428 493 36,000  Level FlightAware
02:49PM 49.7790 -59.8220 225° Southwest 428 493 36,000  Level FlightAware
02:49PM 49.7360 -59.8880 225° Southwest 428 493 36,000  Level FlightAware
02:50PM 49.6940 -59.9540 225° Southwest 428 493 36,000  Level FlightAware
02:50PM 49.6510 -60.0200 225° Southwest 428 493 36,000  Level FlightAware
02:51PM 49.6080 -60.0860 225° Southwest 428 493 36,000  Level FlightAware
02:57PM 49.0150 -60.9860 225° Southwest 422 486 36,000  Level FlightAware
02:57PM 48.9700 -61.0530 224° Southwest 424 488 36,000  Level FlightAware
02:58PM 48.8850 -61.1780 224° Southwest 425 489 36,000  Level FlightAware
02:59PM 48.8380 -61.2470 224° Southwest 425 489 36,000  Level FlightAware
02:59PM 48.7870 -61.3210 224° Southwest 425 489 36,000  Level FlightAware
03:00PM 48.7420 -61.3860 224° Southwest 422 486 36,000  Level FlightAware
03:01PM 48.6920 -61.4590 224° Southwest 422 486 36,000  Level FlightAware
03:01PM 48.6390 -61.5360 224° Southwest 421 484 36,000  Level FlightAware
03:02PM 48.5900 -61.6060 223° Southwest 422 486 36,000  Level FlightAware
03:02PM 48.5450 -61.6720 224° Southwest 421 484 36,000  Level FlightAware
03:03PM 48.4940 -61.7450 224° Southwest 422 486 36,000  Level FlightAware
03:03PM 48.4480 -61.8110 224° Southwest 422 486 36,000  Level FlightAware
03:04PM 48.3910 -61.8920 223° Southwest 422 486 36,000  Level FlightAware
03:05PM 48.3460 -61.9560 223° Southwest 422 486 36,000  Level FlightAware
03:05PM 48.2940 -62.0300 223° Southwest 421 484 36,000  Level FlightAware
03:06PM 48.2440 -62.1010 223° Southwest 420 483 36,000  Level FlightAware
03:06PM 48.1960 -62.1680 223° Southwest 418 481 36,000  Level FlightAware
03:07PM 48.1440 -62.2410 223° Southwest 418 481 36,000  Level FlightAware
03:08PM 48.1010 -62.3010 223° Southwest 418 481 36,000  Level FlightAware
03:08PM 48.0460 -62.3790 223° Southwest 420 483 36,000  Level FlightAware
03:09PM 48.0000 -62.4440 223° Southwest 420 483 36,000  Level FlightAware
03:09PM 47.9480 -62.5150 222° Southwest 420 483 36,000  Level FlightAware
03:10PM 47.8950 -62.5890 223° Southwest 420 483 36,000  Level FlightAware
03:10PM 47.8490 -62.6530 223° Southwest 420 483 36,000  Level FlightAware
03:11PM 47.8120 -62.7040 223° Southwest 420 483 36,000  Level FlightAware
03:12PM 47.7510 -62.7880 223° Southwest 418 481 36,000  Level FlightAware
03:12PM 47.6990 -62.8600 223° Southwest 417 480 36,000  Level FlightAware
03:13PM 47.6530 -62.9230 223° Southwest 416 479 36,000  Level FlightAware
03:13PM 47.6010 -62.9930 222° Southwest 415 478 36,000  Level FlightAware
03:14PM 47.5520 -63.0610 223° Southwest 414 476 36,000  Level FlightAware
03:15PM 47.5000 -63.1300 222° Southwest 414 476 36,000  Level FlightAware
03:15PM 47.4540 -63.1940 223° Southwest 415 478 36,000  Level FlightAware
03:16PM 47.4040 -63.2600 222° Southwest 416 479 36,000  Level FlightAware
03:16PM 47.3560 -63.3250 223° Southwest 417 480 36,000  Level FlightAware
03:17PM 47.3070 -63.3920 223° Southwest 418 481 36,000  Level FlightAware
03:17PM 47.2550 -63.4620 222° Southwest 418 481 36,000  Level FlightAware
03:18PM 47.2010 -63.5330 222° Southwest 417 480 36,000  Level FlightAware
03:19PM 47.1560 -63.5930 222° Southwest 417 480 36,000  Level FlightAware
03:19PM 47.1060 -63.6610 223° Southwest 416 479 36,000  Level FlightAware
03:20PM 47.0540 -63.7290 222° Southwest 417 480 36,000  Level FlightAware
03:20PM 47.0070 -63.7910 222° Southwest 417 480 36,000  Level FlightAware
03:21PM 46.9540 -63.8610 222° Southwest 418 481 36,000  Level FlightAware
03:22PM 46.9070 -63.9230 222° Southwest 417 480 36,000  Level FlightAware
03:22PM 46.8550 -63.9910 222° Southwest 417 480 36,000  Level FlightAware
03:23PM 46.8020 -64.0610 222° Southwest 415 478 36,000  Level FlightAware
03:23PM 46.7530 -64.1250 222° Southwest 414 476 36,000  Level FlightAware
03:24PM 46.7060 -64.1860 222° Southwest 413 475 36,000  Level FlightAware
03:24PM 46.6660 -64.2380 222° Southwest 411 473 36,000  Level FlightAware
03:25PM 46.6140 -64.3050 222° Southwest 411 473 36,000  Level FlightAware
03:26PM 46.5620 -64.3730 222° Southwest 411 473 36,000  Level FlightAware
03:27PM 46.4810 -64.4770 221° Southwest 412 474 36,000  Level FlightAware
03:27PM 46.4350 -64.5360 221° Southwest 413 475 36,000  Level FlightAware
03:28PM 46.3860 -64.5990 222° Southwest 413 475 36,000  Level FlightAware
03:28PM 46.3330 -64.6660 221° Southwest 415 478 36,000  Level FlightAware
03:29PM 46.2800 -64.7340 222° Southwest 414 476 36,000  Level FlightAware
03:29PM 46.2350 -64.7910 221° Southwest 414 476 36,000  Level FlightAware
03:30PM 46.1820 -64.8570 221° Southwest 414 476 36,000  Level FlightAware
03:31PM 46.1300 -64.9240 222° Southwest 414 476 36,000  Level FlightAware
03:31PM 46.1062 -64.9541 221° Southwest 415 478 36,000  Level FlightAware ADS-B (CYQI)
03:32PM 46.0450 -65.0312 221° Southwest 416 479 36,000  Level FlightAware ADS-B (CYQI)
03:32PM 45.9830 -65.1090 221° Southwest 417 480 36,000  Level FlightAware
03:33PM 45.9300 -65.1750 221° Southwest 417 480 36,000  Level FlightAware
03:33PM 45.9283 -65.1776 227° Southwest 417 480 36,000  Level FlightAware ADS-B (CYQI)
03:34PM 45.8555 -65.2685 221° Southwest 418 481 36,000  Level FlightAware ADS-B (CYQI)
03:35PM 45.7784 -65.3641 221° Southwest 418 481 36,000  Level FlightAware ADS-B (CYQI)
03:35PM 45.7215 -65.4346 221° Southwest 418 481 36,000  Level FlightAware ADS-B (CYQI)
03:36PM 45.6795 -65.4866 221° Southwest 418 481 36,000  Level FlightAware ADS-B (CYQI)
03:36PM 45.6326 -65.5444 221° Southwest 419 482 36,000  Level FlightAware ADS-B (CYQI)
03:37PM 45.5792 -65.6101 221° Southwest 418 481 36,000  Level FlightAware ADS-B (CYQI)
03:37PM 45.5349 -65.6645 221° Southwest 418 481 36,000  Level FlightAware ADS-B (CYQI)
03:38PM 45.4847 -65.7259 221° Southwest 418 481 36,000  Level FlightAware ADS-B (CYQI)
03:38PM 45.4402 -65.7804 221° Southwest 417 480 36,000  Level FlightAware ADS-B (CYQI)
03:39PM 45.3968 -65.8334 221° Southwest 416 479 36,000  Level FlightAware ADS-B (CYQI)
03:40PM 45.3221 -65.9242 221° Southwest 416 479 36,000  Level FlightAware ADS-B (CYQI)
03:41PM 45.2640 -65.9947 220° Southwest 416 479 36,000  Level FlightAware ADS-B (CYQI)
03:41PM 45.2235 -66.0435 220° Southwest 415 478 36,000  Level FlightAware ADS-B (CYQI)
03:42PM 45.1640 -66.1150 220° Southwest 414 476 36,000  Level FlightAware
03:42PM 45.1439 -66.1395 221° Southwest 414 476 36,000  Level FlightAware ADS-B (CYQI)
03:42PM 45.1010 -66.1911 220° Southwest 414 476 36,000  Level FlightAware ADS-B (CYQI)
03:43PM 45.0556 -66.2455 220° Southwest 414 476 36,000  Level FlightAware ADS-B (CYQI)
03:43PM 45.0100 -66.3000 220° Southwest 414 476 36,000  Level FlightAware
03:44PM 44.9998 -66.3123 220° Southwest 415 478 36,000  Level FlightAware ADS-B (CYQI)
03:44PM 44.9480 -66.3741 220° Southwest 415 478 36,000  Level FlightAware ADS-B (CYQI)
03:45PM 44.9007 -66.4304 220° Southwest 415 478 36,000  Level FlightAware ADS-B (CYQI)
03:45PM 44.8504 -66.4901 220° Southwest 415 478 36,000  Level FlightAware ADS-B (CYQI)
03:46PM 44.8141 -66.5331 220° Southwest 415 478 36,000  Level FlightAware ADS-B (CYQI)
03:46PM 44.7529 -66.6057 220° Southwest 415 478 36,000  Level FlightAware ADS-B (CYQI)
03:47PM 44.6917 -66.6779 220° Southwest 417 480 36,000  Level FlightAware ADS-B (CYQI)
03:48PM 44.5965 -66.7897 220° Southwest 418 481 36,000  Level FlightAware ADS-B (CYQI)
03:49PM 44.5396 -66.8564 220° Southwest 419 482 36,000  Level FlightAware ADS-B (CYQI)
03:49PM 44.4945 -66.9090 220° Southwest 420 483 36,000  Level FlightAware ADS-B (CYQI)
03:50PM 44.4475 -66.9639 220° Southwest 421 484 36,000  Level FlightAware ADS-B (CYQI)
03:50PM 44.4053 -67.0150 221° Southwest 420 483 36,000  Level FlightAware ADS-B (CYQI)
03:51PM 44.3611 -67.0755 224° Southwest 419 482 36,000  Level FlightAware ADS-B (CYSG)
03:51PM 44.3127 -67.1429 225° Southwest 419 482 36,000  Level FlightAware ADS-B (CYQI)
03:52PM 44.2729 -67.1977 225° Southwest 420 483 36,000  Level FlightAware ADS-B (CYQI)
03:52PM 44.2302 -67.2561 224° Southwest 420 483 36,000  Level FlightAware ADS-B (CYQI)
03:53PM 44.1876 -67.3142 224° Southwest 422 486 36,000  Level FlightAware ADS-B (CYQI)
03:53PM 44.1479 -67.3684 224° Southwest 422 486 36,000  Level FlightAware ADS-B (CYQI)
03:54PM 44.1051 -67.4266 224° Southwest 422 486 36,000  Level FlightAware ADS-B (CYQI)
03:54PM 44.0595 -67.4884 224° Southwest 423 487 36,000  Level FlightAware ADS-B (CYQI)
03:55PM 43.9903 -67.5823 224° Southwest 424 488 36,000  Level FlightAware ADS-B (CYQI)
03:56PM 43.9490 -67.6380 224° Southwest 425 489 36,000  Level FlightAware
03:56PM 43.9380 -67.6528 224° Southwest 424 488 36,000  Level FlightAware ADS-B (CYQI)
03:57PM 43.8829 -67.7270 224° Southwest 424 488 36,000  Level FlightAware ADS-B (CYQI)
03:57PM 43.8181 -67.8140 224° Southwest 424 488 36,000  Level FlightAware ADS-B (CYQI)
03:58PM 43.7743 -67.8726 224° Southwest 424 488 36,000  Level FlightAware ADS-B (CYQI)
03:58PM 43.7276 -67.9349 224° Southwest 425 489 36,000  Level FlightAware ADS-B (CYQI)
03:59PM 43.6863 -67.9899 224° Southwest 425 489 36,000  Level FlightAware ADS-B (CYQI)
04:00PM 43.6255 -68.0708 224° Southwest 424 488 36,000  Level FlightAware ADS-B (CYQI)
04:00PM 43.5846 -68.1250 224° Southwest 424 488 36,000  Level FlightAware ADS-B (CYQI)
04:01PM 43.5410 -68.1830 224° Southwest 423 487 36,000  Level FlightAware
04:01PM 43.5274 -68.2008 223° Southwest 423 487 36,000  Level FlightAware ADS-B (CYQI)
04:01PM 43.4736 -68.2718 224° Southwest 424 488 36,000  Level FlightAware ADS-B (CYQI)
04:02PM 43.4289 -68.3306 224° Southwest 424 488 36,000  Level FlightAware ADS-B (CYQI)
04:02PM 43.3828 -68.3912 224° Southwest 424 488 36,000  Level FlightAware ADS-B (CYQI)
04:03PM 43.3446 -68.4412 224° Southwest 426 490 36,000  Level FlightAware ADS-B (CYQI)
04:03PM 43.2979 -68.5023 224° Southwest 426 490 36,000  Level FlightAware ADS-B (CYQI)
04:04PM 43.2396 -68.5783 224° Southwest 425 489 36,000  Level FlightAware ADS-B (CYQI)
04:05PM 43.1911 -68.6414 224° Southwest 425 489 36,000  Level FlightAware ADS-B (CYQI)
04:05PM 43.1462 -68.6998 223° Southwest 424 488 36,000  Level FlightAware ADS-B (CYQI)
04:06PM 43.0994 -68.7604 223° Southwest 424 488 36,000  Level FlightAware ADS-B (CYQI)
04:06PM 43.0556 -68.8170 223° Southwest 424 488 36,000  Level FlightAware ADS-B (CYQI)
04:07PM 43.0102 -68.8755 223° Southwest 426 490 36,000  Level FlightAware ADS-B (CYQI)
04:07PM 42.9680 -68.9298 223° Southwest 427 491 36,000  Level FlightAware ADS-B (CYQI)
04:08PM 42.9117 -69.0022 223° Southwest 427 491 36,000  Level FlightAware ADS-B (CYQI)
04:08PM 42.8690 -69.0570 223° Southwest 425 489 36,000  Level FlightAware
04:09PM 42.8697 -69.0559 47° Northeast 426 490 36,000  Level FlightAware ADS-B (CYQI)
04:09PM 42.8130 -69.1280 223° Southwest 425 489 36,000  Level FlightAware
04:09PM 42.7848 -69.1646 224° Southwest 426 490 36,000  Level FlightAware ADS-B (CYQI)
04:10PM 42.7260 -69.2393 223° Southwest 425 489 36,000  Level FlightAware ADS-B (CYQI)
04:11PM 42.6792 -69.2988 223° Southwest 425 489 36,000  Level FlightAware ADS-B (CYQI)
04:11PM 42.6375 -69.3516 223° Southwest 426 490 36,000  Level FlightAware ADS-B (CYQI)
04:12PM 42.5826 -69.4212 223° Southwest 427 491 36,000  Level FlightAware ADS-B (CYQI)
04:12PM 42.5380 -69.4780 223° Southwest 421 484 36,000  Level FlightAware
04:13PM 42.4830 -69.5460 222° Southwest 423 487 36,000  Level FlightAware
04:14PM 42.4350 -69.6060 223° Southwest 424 488 36,000  Level FlightAware
04:14PM 42.4231 -69.6219 225° Southwest 424 488 36,000  Level FlightAware ADS-B (CYQI)
04:15PM 42.3280 -69.7410 223° Southwest 423 487 36,000  Level FlightAware
04:15PM 42.2770 -69.8050 223° Southwest 422 486 36,000  Level FlightAware
04:16PM 42.2190 -69.8770 223° Southwest 420 483 36,000  Level FlightAware
04:17PM 42.1710 -69.9360 222° Southwest 420 483 36,000  Level FlightAware
04:17PM 42.1170 -70.0030 223° Southwest 421 484 36,000  Level FlightAware
04:18PM 42.0660 -70.0660 223° Southwest 421 484 36,000  Level FlightAware
04:18PM 42.0280 -70.1130 223° Southwest 421 484 36,000  Level FlightAware
04:19PM 41.9630 -70.1930 222° Southwest 420 483 36,000  Level FlightAware
04:19PM 41.9170 -70.2520 224° Southwest 418 481 36,000  Level FlightAware
04:20PM 41.8660 -70.3370 231° Southwest 422 486 36,000  Level FlightAware
04:21PM 41.8250 -70.4080 232° Southwest 423 487 36,000  Level FlightAware
04:21PM 41.7690 -70.5060 233° Southwest 423 487 36,000  Level FlightAware
04:22PM 41.7320 -70.5690 232° Southwest 423 487 36,000  Level FlightAware
04:23PM 41.6860 -70.6470 232° Southwest 423 487 36,000  Level FlightAware
04:23PM 41.6340 -70.7380 233° Southwest 423 487 36,000  Level FlightAware
04:24PM 41.5900 -70.8110 231° Southwest 425 489 36,000  Level FlightAware
04:24PM 41.5520 -70.8770 232° Southwest 423 487 36,000  Level FlightAware
04:25PM 41.5100 -70.9470 231° Southwest 422 486 36,000  Level FlightAware
04:26PM 41.4670 -71.0200 232° Southwest 421 484 36,000  Level FlightAware
04:26PM 41.4210 -71.0990 232° Southwest 420 483 36,000  Level FlightAware
04:27PM 41.3820 -71.1640 231° Southwest 420 483 36,000  Level FlightAware
04:27PM 41.3410 -71.2310 231° Southwest 421 484 36,000  Level FlightAware
04:28PM 41.2880 -71.2990 224° Southwest 423 487 36,000  Level FlightAware
04:28PM 41.2830 -71.3054 224° Southwest 422 486 36,000  Level FlightAware ADS-B (KSNC)
04:29PM 41.2420 -71.3570 223° Southwest 421 484 36,000  Level FlightAware
04:29PM 41.1920 -71.4205 224° Southwest 420 483 36,000  Level FlightAware ADS-B (KSNC)
04:30PM 41.1448 -71.4799 224° Southwest 422 486 36,000  Level FlightAware ADS-B (KSNC)
04:30PM 41.1030 -71.5325 223° Southwest 424 488 36,000  Level FlightAware ADS-B (KSNC)
04:31PM 41.0480 -71.5930 220° Southwest 427 491 36,000  Level FlightAware
04:31PM 41.0047 -71.6369 217° Southwest 428 493 36,000  Level FlightAware ADS-B (KSNC)
04:32PM 40.9440 -71.7000 218° Southwest 428 493 36,000 -480 Level FlightAware
04:32PM 40.9374 -71.7069 218° Southwest 428 493 35,500 -840 Descending FlightAware ADS-B (KSNC)
04:33PM 40.8157 -71.8347 218° Southwest 427 491 35,000 -360 Descending FlightAware ADS-B (KSNC)
04:34PM 40.7539 -71.8993 218° Southwest 424 488 35,000  Level FlightAware ADS-B (KSNC)
04:35PM 40.7079 -71.9473 218° Southwest 424 488 35,000  Level FlightAware ADS-B (KSNC)
04:35PM 40.6510 -72.0070 219° Southwest 424 488 35,000  Level FlightAware
04:35PM 40.6421 -72.0159 217° Southwest 424 488 35,000  Level FlightAware ADS-B (KSNC)
04:36PM 40.5860 -72.0741 218° Southwest 424 488 35,000  Level FlightAware ADS-B (KSNC)
04:36PM 40.5310 -72.1310 218° Southwest 425 489 35,000  Level FlightAware
04:37PM 40.5074 -72.1555 218° Southwest 426 490 35,000  Level FlightAware ADS-B (KSNC)
04:38PM 40.4190 -72.2470 218° Southwest 426 490 35,000  Level FlightAware
04:38PM 40.4011 -72.2653 218° Southwest 426 490 35,000  Level FlightAware ADS-B (KSNC)
04:39PM 40.3150 -72.3540 218° Southwest 424 488 35,000  Level FlightAware
04:39PM 40.2583 -72.4122 218° Southwest 423 487 35,000  Level FlightAware ADS-B (KSNC)
04:40PM 40.2030 -72.4690 218° Southwest 423 487 35,000  Level FlightAware
04:40PM 40.1895 -72.4825 217° Southwest 424 488 35,000  Level FlightAware ADS-B (KSNC)
04:41PM 40.1421 -72.5309 218° Southwest 424 488 35,000  Level FlightAware ADS-B (KSNC)
04:41PM 40.0951 -72.5788 218° Southwest 416 479 35,000  Level FlightAware ADS-B (KSNC)
04:42PM 40.0470 -72.6270 218° Southwest 415 478 35,000  Level FlightAware
04:42PM 39.9990 -72.6770 219° Southwest 415 478 35,000  Level FlightAware
04:43PM 39.9430 -72.7330 217° Southwest 413 475 35,000  Level FlightAware
04:43PM 39.8920 -72.7850 218° Southwest 405 466 35,000  Level FlightAware
04:44PM 39.8828 -72.7941 217° Southwest 402 463 35,000  Level FlightAware ADS-B (KSNC)
04:44PM 39.8250 -72.8530 218° Southwest 402 463 35,000  Level FlightAware
04:45PM 39.7760 -72.9010 217° Southwest 404 465 35,000  Level FlightAware
04:45PM 39.7580 -72.9199 219° Southwest 406 467 35,000  Level FlightAware ADS-B (KSNC)
04:46PM 39.6971 -72.9811 218° Southwest 406 467 35,000  Level FlightAware ADS-B (KSNC)
04:46PM 39.6436 -73.0347 218° Southwest 406 467 35,000  Level FlightAware ADS-B (KSNC)
04:47PM 39.5630 -73.1150 218° Southwest 407 468 35,000  Level FlightAware
04:47PM 39.5359 -73.1424 218° Southwest 408 470 35,000  Level FlightAware ADS-B (KSNC)
04:48PM 39.4834 -73.1947 218° Southwest 406 467 35,000  Level FlightAware ADS-B (KSNC)
04:49PM 39.4150 -73.2620 217° Southwest 409 471 35,000  Level FlightAware
04:49PM 39.3620 -73.3150 218° Southwest 408 470 35,000  Level FlightAware
04:50PM 39.3040 -73.3720 217° Southwest 407 468 35,000  Level FlightAware
04:50PM 39.2540 -73.4220 218° Southwest 408 470 35,000  Level FlightAware
04:51PM 39.2030 -73.4720 217° Southwest 408 470 35,000  Level FlightAware
04:52PM 39.1470 -73.5270 217° Southwest 408 470 35,000  Level FlightAware
04:52PM 39.0960 -73.5770 217° Southwest 409 471 35,000  Level FlightAware
04:53PM 39.0460 -73.6260 217° Southwest 411 473 35,000  Level FlightAware
04:53PM 38.9880 -73.6840 218° Southwest 413 475 35,000  Level FlightAware
04:54PM 38.9310 -73.7390 217° Southwest 414 476 35,000  Level FlightAware
04:55PM 38.8850 -73.7840 217° Southwest 413 475 35,000  Level FlightAware
04:55PM 38.8350 -73.8320 217° Southwest 409 471 35,000  Level FlightAware
04:56PM 38.7790 -73.8860 217° Southwest 410 472 35,000  Level FlightAware
04:56PM 38.7260 -73.9380 217° Southwest 421 484 35,000  Level FlightAware
04:57PM 38.6710 -73.9920 217° Southwest 412 474 35,000  Level FlightAware
04:57PM 38.6170 -74.0430 216° Southwest 420 483 35,000  Level FlightAware
04:58PM 38.5610 -74.0980 218° Southwest 412 474 35,000  Level FlightAware
04:59PM 38.5080 -74.1480 216° Southwest 412 474 35,000  Level FlightAware
04:59PM 38.4540 -74.2000 217° Southwest 420 483 35,000  Level FlightAware
05:00PM 38.3990 -74.2530 217° Southwest 423 487 35,000  Level FlightAware
05:00PM 38.3360 -74.3130 217° Southwest 423 487 35,000  Level FlightAware
05:01PM 38.2740 -74.3720 217° Southwest 425 489 35,000  Level FlightAware
05:02PM 38.2250 -74.4190 217° Southwest 426 490 35,000  Level FlightAware
05:02PM 38.1630 -74.4770 216° Southwest 422 486 35,000  Level FlightAware
05:03PM 38.1170 -74.5210 217° Southwest 427 491 35,000  Level FlightAware
05:03PM 38.0600 -74.5750 217° Southwest 425 489 35,000  Level FlightAware
05:04PM 37.9970 -74.6340 216° Southwest 429 494 35,000  Level FlightAware
05:05PM 37.9430 -74.6860 217° Southwest 430 495 35,000  Level FlightAware
05:05PM 37.8900 -74.7360 217° Southwest 429 494 35,000  Level FlightAware
05:06PM 37.8260 -74.7960 217° Southwest 428 493 35,000  Level FlightAware
05:06PM 37.7770 -74.8420 217° Southwest 429 494 35,000 240 Level FlightAware
05:07PM 37.7210 -74.8940 216° Southwest 444 511 35,300 720 Climbing FlightAware
05:08PM 37.6560 -74.9550 217° Southwest 446 513 35,900 600 Climbing FlightAware
05:08PM 37.6020 -75.0040 216° Southwest 456 525 36,000 60 Climbing FlightAware
05:09PM 37.5330 -75.0690 217° Southwest 448 516 36,000  Level FlightAware
05:09PM 37.4790 -75.1190 216° Southwest 448 516 36,000  Level FlightAware
05:10PM 37.4240 -75.1700 216° Southwest 447 514 36,000  Level FlightAware
05:10PM 37.3720 -75.2180 216° Southwest 445 512 36,000  Level FlightAware
05:11PM 37.3200 -75.2660 216° Southwest 444 511 36,000  Level FlightAware
05:12PM 37.2570 -75.3240 216° Southwest 444 511 36,000  Level FlightAware
05:12PM 37.1880 -75.3870 216° Southwest 445 512 36,000  Level FlightAware
05:13PM 37.1240 -75.4470 217° Southwest 446 513 36,000  Level FlightAware
05:14PM 37.0640 -75.5010 216° Southwest 446 513 36,000  Level FlightAware
05:14PM 36.9960 -75.5630 216° Southwest 447 514 36,000  Level FlightAware
05:15PM 36.9090 -75.6420 216° Southwest 446 513 36,000  Level FlightAware
05:15PM 36.8580 -75.6890 216° Southwest 454 522 36,000  Level FlightAware
05:16PM 36.7920 -75.7490 216° Southwest 455 524 36,000  Level FlightAware
05:17PM 36.7240 -75.8100 216° Southwest 455 524 36,000  Level FlightAware
05:18PM 36.6500 -75.8770 216° Southwest 446 513 36,000  Level FlightAware
05:18PM 36.5730 -75.9460 216° Southwest 454 522 36,000  Level FlightAware
05:19PM 36.5160 -75.9970 216° Southwest 456 525 36,000  Level FlightAware
05:19PM 36.4630 -76.0440 216° Southwest 458 527 36,000  Level FlightAware
05:20PM 36.3860 -76.1140 216° Southwest 459 528 36,000  Level FlightAware
05:21PM 36.3260 -76.1670 215° Southwest 459 528 36,000  Level FlightAware
05:22PM 36.2390 -76.2440 216° Southwest 461 531 36,000  Level FlightAware
05:22PM 36.1750 -76.3010 216° Southwest 461 531 36,000  Level FlightAware
05:25PM 35.9160 -76.5310 216° Southwest 470 541 36,000  Level FlightAware
05:25PM 35.8590 -76.5820 216° Southwest 470 541 36,000  Level FlightAware
05:26PM 35.8050 -76.6300 216° Southwest 470 541 36,000  Level FlightAware
05:26PM 35.7510 -76.6780 216° Southwest 470 541 36,000  Level FlightAware
05:27PM 35.6970 -76.7260 216° Southwest 470 541 36,000  Level FlightAware
05:28PM 35.6460 -76.7720 216° Southwest 470 541 36,000  Level FlightAware
05:28PM 35.5930 -76.8200 216° Southwest 470 541 36,000  Level FlightAware
05:29PM 35.5390 -76.8680 216° Southwest 470 541 36,000  Level FlightAware
05:30PM 35.4700 -76.9290 216° Southwest 470 541 36,000  Level FlightAware
05:30PM 35.4160 -76.9770 216° Southwest 470 541 36,000  Level FlightAware
05:31PM 35.3610 -77.0270 217° Southwest 470 541 36,000  Level FlightAware
05:31PM 35.3070 -77.0750 216° Southwest 470 541 36,000  Level FlightAware
05:33PM 35.0810 -77.2560 213° Southwest 478 550 36,000  Level FlightAware
05:33PM 35.0190 -77.3090 215° Southwest 478 550 36,000  Level FlightAware
05:34PM 34.9540 -77.3650 215° Southwest 477 549 36,000  Level FlightAware
05:34PM 34.8930 -77.4170 215° Southwest 478 550 36,000  Level FlightAware
05:35PM 34.7980 -77.4970 215° Southwest 480 552 36,000  Level FlightAware
05:35PM 34.7470 -77.5410 215° Southwest 482 555 36,000  Level FlightAware
05:36PM 34.6770 -77.6000 215° Southwest 485 558 36,000  Level FlightAware
05:37PM 34.6090 -77.6580 215° Southwest 487 560 36,000  Level FlightAware
05:37PM 34.5430 -77.7140 215° Southwest 488 562 36,000  Level FlightAware
05:38PM 34.5220 -77.7310 214° Southwest 489 563 36,000  Level FlightAware
05:38PM 34.4650 -77.7800 215° Southwest 489 563 36,000  Level FlightAware
05:39PM 34.3960 -77.8300 211° Southwest 493 567 36,000  Level FlightAware
05:40PM 34.3180 -77.8730 204° Southwest 497 572 36,000  Level FlightAware
05:40PM 34.2470 -77.9010 198° South 503 579 36,000  Level FlightAware
05:41PM 34.1640 -77.9260 194° South 507 583 36,000  Level FlightAware
05:41PM 34.0820 -77.9520 195° South 511 588 36,000  Level FlightAware
05:42PM 34.0170 -77.9720 194° South 514 592 36,000  Level FlightAware
05:42PM 33.9280 -77.9970 193° South 516 594 36,000  Level FlightAware
05:43PM 33.8420 -78.0220 194° South 520 598 36,000  Level FlightAware
05:44PM 33.7530 -78.0480 194° South 524 603 36,000  Level FlightAware
05:44PM 33.6770 -78.0700 194° South 528 608 36,000  Level FlightAware
05:45PM 33.5900 -78.0950 193° South 531 611 36,000  Level FlightAware
05:45PM 33.4950 -78.1220 193° South 532 612 36,000  Level FlightAware
05:46PM 33.4050 -78.1480 194° South 531 611 36,000  Level FlightAware
05:47PM 33.3220 -78.1710 193° South 532 612 36,000  Level FlightAware
05:47PM 33.2460 -78.1930 194° South 530 610 36,000  Level FlightAware
05:48PM 33.1730 -78.2140 194° South 530 610 36,000  Level FlightAware
05:48PM 33.0850 -78.2380 193° South 531 611 36,000  Level FlightAware
05:49PM 32.9970 -78.2630 193° South 531 611 36,000  Level FlightAware
05:49PM 32.9190 -78.2850 193° South 531 611 36,000  Level FlightAware
05:50PM 32.8380 -78.3080 193° South 533 613 36,000  Level FlightAware
05:51PM 32.7630 -78.3290 193° South 534 615 36,000  Level FlightAware
05:51PM 32.6140 -78.3710 193° South 534 615 36,000  Level FlightAware
05:52PM 32.5140 -78.3990 193° South 536 617 36,000  Level FlightAware
05:53PM 32.4160 -78.4260 193° South 538 619 36,000  Level FlightAware
05:53PM 32.3280 -78.4510 193° South 537 618 36,000  Level FlightAware
05:54PM 32.2530 -78.4710 193° South 537 618 36,000  Level FlightAware
05:54PM 32.1790 -78.4910 193° South 537 618 36,000  Level FlightAware
05:55PM 32.1050 -78.5120 194° South 537 618 36,000  Level FlightAware
05:56PM 32.0270 -78.5330 193° South 537 618 36,000  Level FlightAware
05:56PM 31.9530 -78.5530 193° South 537 618 36,000  Level FlightAware
05:57PM 31.8790 -78.5730 193° South 537 618 36,000  Level FlightAware
05:58PM 31.6730 -78.6400 195° South 537 618 36,000  Level FlightAware
05:58PM 31.5990 -78.6610 194° South 537 618 36,000  Level FlightAware
05:59PM 31.5290 -78.6800 193° South 537 618 36,000  Level FlightAware
06:00PM 31.4550 -78.7000 193° South 537 618 36,000  Level FlightAware
06:00PM 31.3790 -78.7200 193° South 537 618 36,000  Level FlightAware
06:01PM 31.3050 -78.7400 193° South 537 618 36,000  Level FlightAware
06:01PM 31.2310 -78.7600 193° South 537 618 36,000  Level FlightAware
06:02PM 31.1570 -78.7800 193° South 537 618 36,000  Level FlightAware
06:03PM 31.0830 -78.8000 193° South 537 618 36,000  Level FlightAware
06:03PM 31.0090 -78.8200 193° South 537 618 36,000  Level FlightAware
06:04PM 30.9350 -78.8400 193° South 537 618 36,000  Level FlightAware
06:04PM 30.8610 -78.8600 193° South 537 618 36,000  Level FlightAware
06:05PM 30.7850 -78.8800 193° South 537 618 36,000  Level FlightAware
06:06PM 30.7110 -78.9000 193° South 537 618 36,000  Level FlightAware
06:06PM 30.6360 -78.9200 193° South 537 618 36,000  Level FlightAware
06:07PM 30.5620 -78.9400 193° South 537 618 36,000  Level FlightAware
06:08PM 30.2275 -79.0811 193° South 548 631 36,000  Level Miami Center
06:09PM 30.0850 -79.1406 200° South 548 631 36,000  Level Miami Center
06:10PM 29.9503 -79.2119 205° Southwest 543 625 36,000  Level Miami Center
06:11PM 29.8097 -79.2686 199° South 538 619 36,000  Level Miami Center
06:12PM 29.6689 -79.3300 201° Southwest 538 619 36,000  Level Miami Center
06:17PM 28.8430 -79.6130 201° Southwest 36,000  Level FlightAware
06:18PM 28.7570 -79.6290 189° South 537 618 36,000  Level FlightAware
06:19PM 28.6670 -79.6450 189° South 538 619 36,000  Level FlightAware
06:20PM 28.5420 -79.6670 189° South 538 619 36,000  Level FlightAware
06:20PM 28.4670 -79.6810 189° South 538 619 36,000  Level FlightAware
06:21PM 28.3590 -79.7000 189° South 536 617 36,000  Level FlightAware
06:21PM 28.2750 -79.7150 189° South 534 615 36,000  Level FlightAware
06:22PM 28.1670 -79.7340 189° South 533 613 36,000  Level FlightAware
06:23PM 28.0780 -79.7500 189° South 523 602 36,000  Level FlightAware
06:23PM 28.0050 -79.7630 189° South 522 601 36,000  Level FlightAware
06:24PM 27.9160 -79.7790 189° South 521 600 36,000  Level FlightAware
06:24PM 27.8260 -79.7950 189° South 524 603 36,000  Level FlightAware
06:25PM 27.7400 -79.8100 189° South 534 615 36,000  Level FlightAware
06:26PM 27.6530 -79.8250 189° South 535 616 36,000  Level FlightAware
06:26PM 27.5760 -79.8380 189° South 535 616 36,000  Level FlightAware
06:27PM 27.4850 -79.8550 189° South 533 613 36,000  Level FlightAware
06:27PM 27.4010 -79.8690 188° South 524 603 36,000  Level FlightAware
06:28PM 27.3140 -79.8850 189° South 523 602 36,000  Level FlightAware
06:28PM 27.2330 -79.8990 189° South 521 600 36,000  Level FlightAware
06:29PM 27.1440 -79.9140 189° South 520 598 36,000  Level FlightAware
06:30PM 27.0620 -79.9290 189° South 519 597 36,000  Level FlightAware
06:30PM 26.9790 -79.9430 189° South 518 596 36,000  Level FlightAware
06:31PM 26.8980 -79.9570 189° South 517 595 36,000  Level FlightAware
06:31PM 26.8080 -79.9730 189° South 518 596 36,000  Level FlightAware
06:32PM 26.7250 -79.9870 189° South 520 598 36,000  Level FlightAware
06:33PM 26.6320 -80.0030 189° South 528 608 36,000  Level FlightAware
06:33PM 26.5440 -80.0190 189° South 528 608 36,000  Level FlightAware
06:34PM 26.4570 -80.0340 189° South 530 610 36,000  Level FlightAware
06:34PM 26.3790 -80.0470 188° South 531 611 36,000  Level FlightAware
06:35PM 26.2920 -80.0620 189° South 532 612 36,000  Level FlightAware
06:35PM 26.2050 -80.0770 189° South 531 611 36,000  Level FlightAware
06:36PM 26.1220 -80.0910 189° South 530 610 36,000  Level FlightAware
06:37PM 26.0430 -80.1050 189° South 530 610 36,000  Level FlightAware
06:37PM 25.9530 -80.1200 189° South 529 609 36,000  Level FlightAware
06:38PM 25.8660 -80.1420 193° South 526 605 36,000  Level FlightAware
06:38PM 25.7860 -80.1720 199° South 522 601 36,000  Level FlightAware
06:39PM 25.7160 -80.2090 205° Southwest 509 586 36,000  Level FlightAware
06:40PM 25.6450 -80.2570 211° Southwest 487 560 36,000  Level FlightAware
06:40PM 25.6100 -80.2880 219° Southwest 476 548 36,000  Level FlightAware
06:40PM 25.5610 -80.3560 231° Southwest 467 537 36,000  Level FlightAware
06:41PM 25.5120 -80.4250 232° Southwest 470 541 36,000  Level FlightAware
06:42PM 25.4700 -80.4840 232° Southwest 471 542 36,000  Level FlightAware
06:42PM 25.4220 -80.5520 232° Southwest 474 545 36,000  Level FlightAware
06:43PM 25.3750 -80.6180 232° Southwest 475 547 36,000  Level FlightAware
06:43PM 25.3290 -80.6840 232° Southwest 475 547 36,000  Level FlightAware
06:44PM 25.2710 -80.7650 232° Southwest 475 547 36,000  Level FlightAware
06:45PM 25.2220 -80.8330 231° Southwest 475 547 36,000  Level FlightAware
06:45PM 25.1810 -80.8900 232° Southwest 474 545 36,000  Level FlightAware
06:46PM 25.1220 -80.9740 232° Southwest 475 547 36,000  Level FlightAware
06:47PM 25.0670 -81.0510 232° Southwest 476 548 36,000  Level FlightAware
06:47PM 25.0260 -81.1080 232° Southwest 472 543 36,000  Level FlightAware
06:48PM 24.9790 -81.1740 232° Southwest 471 542 36,000  Level FlightAware
06:48PM 24.9180 -81.2580 231° Southwest 474 545 36,000  Level FlightAware
06:49PM 24.8690 -81.3260 232° Southwest 470 541 36,000  Level FlightAware
06:50PM 24.8140 -81.4040 232° Southwest 471 542 36,000  Level FlightAware
06:50PM 24.7660 -81.4690 231° Southwest 473 544 36,000  Level FlightAware
06:51PM 24.7180 -81.5360 232° Southwest 473 544 36,000  Level FlightAware
06:51PM 24.6740 -81.5970 232° Southwest 473 544 36,000 -120 Level FlightAware
06:52PM 24.6220 -81.6680 231° Southwest 472 543 35,900 -720 Descending FlightAware
06:53PM 24.5740 -81.7340 231° Southwest 466 536 35,200 -1,740 Descending FlightAware
06:53PM 24.5270 -81.8000 232° Southwest 469 540 33,900 -2,160 Descending FlightAware
06:54PM 24.4780 -81.8670 231° Southwest 464 534 32,700 -1,920 Descending FlightAware
06:54PM 24.4330 -81.9290 231° Southwest 452 520 31,700 -1,740 Descending FlightAware
06:55PM 24.3860 -81.9930 231° Southwest 446 513 30,700 -1,680 Descending FlightAware
06:55PM 24.3420 -82.0520 231° Southwest 444 511 29,800 -2,160 Descending FlightAware
06:56PM 24.2970 -82.1150 232° Southwest 445 512 28,200 -2,220 Descending FlightAware
06:57PM 24.2390 -82.1940 231° Southwest 439 505 26,900 -1,320 Descending FlightAware
06:58PM 24.1840 -82.2690 231° Southwest 435 501 26,200 -540 Descending FlightAware
06:58PM 24.1430 -82.3240 231° Southwest 435 501 26,200  Level FlightAware
06:59PM 24.1040 -82.3770 231° Southwest 435 501 26,200  Level FlightAware
06:59PM 24.0650 -82.4290 231° Southwest 435 501 26,200  Level FlightAware
07:00PM 24.0270 -82.4820 232° Southwest 435 501 26,200  Level FlightAware
07:01PM 23.9870 -82.5350 230° Southwest 435 501 26,200  Level FlightAware
07:07PM 23.2460 -82.4196 175° South  Level FlightAware Approximate
07:08PM 23.1180 -82.4136 170° South  Level FlightAware Approximate
07:09PM 22.9909 -82.4000 180° South  Level FlightAware Approximate
07:10PM 22.9891 -82.4091 180° South  Level Estimated
07:11PM 22.9891 -82.4091 180° South  Level Estimated
07:12PM 22.9891 -82.4091 180° South  Level Estimated
07:13PM 22.9891 -82.4091 180° South  Level Estimated
07:14PM 22.9891 -82.4091 180° South  Level Estimated
07:15PM 22.9891 -82.4091 180° South  Level Estimated
07:16PM 22.9891 -82.4091 180° South  Level Estimated
07:17PM 22.9891 -82.4091 180° South  Level Estimated
07:18PM 22.9891 -82.4091 180° South  Level Estimated
07:19PM 22.9891 -82.4091 180° South  Level Estimated
07:20PM 22.9891 -82.4091 180° South  Level Estimated
07:21PM 22.9891 -82.4091 180° South  Level Estimated
07:22PM 22.9891 -82.4091 180° South  Level Estimated
07:23PM 22.9891 -82.4091 180° South  Level Estimated
07:24PM 22.9891 -82.4091 180° South  Level Estimated
07:25PM 22.9891 -82.4091 180° South  Level Estimated
07:26PM 22.9891 -82.4091 180° South  Level Estimated
07:27PM 22.9891 -82.4091 180° South  Level Estimated
07:28PM 22.9891 -82.4091 180° South  Level Estimated
07:29PM 22.9891 -82.4091 180° South  Level Estimated
07:30PM 22.9891 -82.4091 180° South  Level Estimated
07:31PM 22.9891 -82.4091 180° South  Level Estimated